ADDS METAR Data INFO
IDs: Format: Raw Decoded Include TAF

Data at: 0728 UTC 16 Jan 2018

METAR for:PACD (Cold Bay Arpt, AK, US)
Text:PACD 160653Z AUTO 15011KT 10SM FEW095 01/00 A2933 RMK AO2 SLP932 T00060000 TSNO
Temperature: 0.6°C ( 33°F)
Dewpoint: 0.0°C ( 32°F) [RH = 96%]
Pressure (altimeter):29.33 inches Hg ( 993.3 mb) [Sea level pressure: 993.2 mb]
Winds:from the SSE (150 degrees) at 13 MPH (11 knots; 5.7 m/s)
Visibility:10 or more sm (16+ km)
Ceiling:at least 12,000 feet AGL
Clouds: few clouds at 9500 feet AGL
QC Flag:automated observation with no human augmentation
Text:PACD 160553Z AUTO 14008KT 10SM CLR 01/00 A2932 RMK AO2 SLP929 60001 T00060000 10033 20006 53014 TSNO
Temperature: 0.6°C ( 33°F)
Dewpoint: 0.0°C ( 32°F) [RH = 96%]
Pressure (altimeter):29.32 inches Hg ( 993.0 mb) [Sea level pressure: 992.9 mb]
Winds:from the SE (140 degrees) at 9 MPH (8 knots; 4.1 m/s)
Visibility:10 or more sm (16+ km)
Ceiling:at least 12,000 feet AGL
Clouds:sky clear below 12,000 feet AGL
QC Flag:automated observation with no human augmentation
Text:PACD 160453Z AUTO 14010KT 10SM SCT080 01/01 A2930 RMK AO2 SLP924 T00110006 TSNO
Temperature: 1.1°C ( 34°F)
Dewpoint: 0.6°C ( 33°F) [RH = 96%]
Pressure (altimeter):29.30 inches Hg ( 992.3 mb) [Sea level pressure: 992.4 mb]
Winds:from the SE (140 degrees) at 12 MPH (10 knots; 5.1 m/s)
Visibility:10 or more sm (16+ km)
Ceiling:at least 12,000 feet AGL
Clouds: scattered clouds at 8000 feet AGL
QC Flag:automated observation with no human augmentation
Text:PACD 160353Z AUTO 13010KT 10SM FEW017 SCT021 02/01 A2930 RMK AO2 SLP921 T00170011 TSNO
Temperature: 1.7°C ( 35°F)
Dewpoint: 1.1°C ( 34°F) [RH = 96%]
Pressure (altimeter):29.30 inches Hg ( 992.3 mb) [Sea level pressure: 992.1 mb]
Winds:from the SE (130 degrees) at 12 MPH (10 knots; 5.1 m/s)
Visibility:10 or more sm (16+ km)
Ceiling:at least 12,000 feet AGL
Clouds: few clouds at 1700 feet AGL, scattered clouds at 2100 feet AGL
QC Flag:automated observation with no human augmentation
Text:PACD 160253Z AUTO 14010KT 10SM FEW017 01/01 A2928 RMK AO2 SLP916 60001 T00110006 53012 TSNO
Temperature: 1.1°C ( 34°F)
Dewpoint: 0.6°C ( 33°F) [RH = 96%]
Pressure (altimeter):29.28 inches Hg ( 991.6 mb) [Sea level pressure: 991.6 mb]
Winds:from the SE (140 degrees) at 12 MPH (10 knots; 5.1 m/s)
Visibility:10 or more sm (16+ km)
Ceiling:at least 12,000 feet AGL
Clouds: few clouds at 1700 feet AGL
QC Flag:automated observation with no human augmentation
Text:PACD 160203Z AUTO 14010KT 10SM SCT025 SCT032 02/01 A2927 RMK AO2 T00220011 TSNO
Temperature: 2.2°C ( 36°F)
Dewpoint: 1.1°C ( 34°F) [RH = 92%]
Pressure (altimeter):29.27 inches Hg ( 991.3 mb)
Winds:from the SE (140 degrees) at 12 MPH (10 knots; 5.1 m/s)
Visibility:10 or more sm (16+ km)
Ceiling:at least 12,000 feet AGL
Clouds: scattered clouds at 2500 feet AGL, scattered clouds at 3200 feet AGL
QC Flag:automated observation with no human augmentation
Text:PACD 160153Z AUTO 13010KT 10SM BKN029 02/01 A2927 RMK AO2 RAB00E15SNB03E12 SLP912 P0001 T00220011 TSNO
Temperature: 2.2°C ( 36°F)
Dewpoint: 1.1°C ( 34°F) [RH = 92%]
Pressure (altimeter):29.27 inches Hg ( 991.3 mb) [Sea level pressure: 991.2 mb]
Winds:from the SE (130 degrees) at 12 MPH (10 knots; 5.1 m/s)
Visibility:10 or more sm (16+ km)
Ceiling:2900 feet AGL
Clouds: broken clouds at 2900 feet AGL
QC Flag:automated observation with no human augmentation

TAF for:PACD (Cold Bay Arpt, AK, US) issued at 0527 UTC 16 Jan 2018
Text:PACD 160527Z 1606/1706 14010KT P6SM VCSH SCT020 SCT080
Forecast period:0600 to 1200 UTC 16 January 2018
Forecast type:FROM: standard forecast or significant change
Winds:from the SE (140 degrees) at 12 MPH (10 knots; 5.1 m/s)
Visibility:6 or more sm (10+ km)
Ceiling:at least 12,000 feet AGL
Clouds: scattered clouds at 2000 feet AGL, scattered clouds at 8000 feet AGL
Weather:VCSH (showers in vicinity)
Text:FM161200 VRB05KT P6SM VCSH SCT025 BKN040
Forecast period:1200 to 2200 UTC 16 January 2018
Forecast type:FROM: standard forecast or significant change
Winds:variable direction winds at 6 MPH (5 knots; 2.6 m/s)
Visibility:6 or more sm (10+ km)
Ceiling:4000 feet AGL
Clouds: scattered clouds at 2500 feet AGL, broken clouds at 4000 feet AGL
Weather:VCSH (showers in vicinity)
Text:FM162200 33010KT 5SM -SHSN SCT015 OVC025
Forecast period:2200 UTC 16 January 2018 to 0400 UTC 17 January 2018
Forecast type:FROM: standard forecast or significant change
Winds:from the NNW (330 degrees) at 12 MPH (10 knots; 5.1 m/s)
Visibility: 5 sm ( 8 km)
Ceiling:2500 feet AGL
Clouds: scattered clouds at 1500 feet AGL, overcast cloud deck at 2500 feet AGL
Weather:-SHSN (light snow showers)
Text:FM170400 33017G25KT 4SM -SHSN BKN015 OVC025
Forecast period:0400 to 0600 UTC 17 January 2018
Forecast type:FROM: standard forecast or significant change
Winds:from the NNW (330 degrees) at 20 MPH (17 knots; 8.7 m/s) gusting to 29 MPH (25 knots; 12.9 m/s)
Visibility: 4 sm ( 6 km)
Ceiling:1500 feet AGL
Clouds: broken clouds at 1500 feet AGL, overcast cloud deck at 2500 feet AGL
Weather:-SHSN (light snow showers)